sensor_id;sensor_type;location;lat;lon;timestamp;P1;durP1;ratioP1;P2;durP2;ratioP2
65009;SDS011;51556;50.002;22.014;2023-10-09T00:00:57;6.70;;;3.60;;
65009;SDS011;51556;50.002;22.014;2023-10-09T00:03:37;7.00;;;3.40;;
65009;SDS011;51556;50.002;22.014;2023-10-09T00:06:03;6.80;;;3.10;;
65009;SDS011;51556;50.002;22.014;2023-10-09T00:08:29;6.80;;;3.20;;
65009;SDS011;51556;50.002;22.014;2023-10-09T00:11:00;5.90;;;4.10;;
65009;SDS011;51556;50.002;22.014;2023-10-09T00:19:01;7.60;;;3.40;;
65009;SDS011;51556;50.002;22.014;2023-10-09T00:21:43;3.80;;;2.30;;
65009;SDS011;51556;50.002;22.014;2023-10-09T00:24:12;7.80;;;2.00;;
65009;SDS011;51556;50.002;22.014;2023-10-09T00:26:47;5.40;;;2.00;;
65009;SDS011;51556;50.002;22.014;2023-10-09T00:29:13;7.20;;;2.20;;
65009;SDS011;51556;50.002;22.014;2023-10-09T00:31:50;3.20;;;1.90;;
65009;SDS011;51556;50.002;22.014;2023-10-09T00:34:37;8.40;;;2.60;;
65009;SDS011;51556;50.002;22.014;2023-10-09T00:37:06;6.40;;;3.50;;
65009;SDS011;51556;50.002;22.014;2023-10-09T00:39:51;5.10;;;2.60;;
65009;SDS011;51556;50.002;22.014;2023-10-09T00:42:24;7.90;;;3.00;;
65009;SDS011;51556;50.002;22.014;2023-10-09T00:45:01;6.80;;;2.80;;
65009;SDS011;51556;50.002;22.014;2023-10-09T00:47:33;6.10;;;2.70;;
65009;SDS011;51556;50.002;22.014;2023-10-09T00:50:00;5.20;;;2.60;;
65009;SDS011;51556;50.002;22.014;2023-10-09T00:52:40;5.50;;;2.20;;
65009;SDS011;51556;50.002;22.014;2023-10-09T00:55:26;6.00;;;2.30;;
65009;SDS011;51556;50.002;22.014;2023-10-09T00:58:02;2.50;;;1.60;;
65009;SDS011;51556;50.002;22.014;2023-10-09T01:00:34;5.30;;;1.90;;
65009;SDS011;51556;50.002;22.014;2023-10-09T01:03:10;3.80;;;2.00;;
65009;SDS011;51556;50.002;22.014;2023-10-09T01:05:54;3.70;;;1.60;;
65009;SDS011;51556;50.002;22.014;2023-10-09T01:08:28;3.80;;;1.90;;
65009;SDS011;51556;50.002;22.014;2023-10-09T01:11:06;7.50;;;2.10;;
65009;SDS011;51556;50.002;22.014;2023-10-09T01:13:43;3.60;;;1.80;;
65009;SDS011;51556;50.002;22.014;2023-10-09T01:16:16;6.20;;;1.80;;
65009;SDS011;51556;50.002;22.014;2023-10-09T01:18:43;9.10;;;3.40;;
65009;SDS011;51556;50.002;22.014;2023-10-09T01:21:10;7.70;;;3.10;;
65009;SDS011;51556;50.002;22.014;2023-10-09T01:23:43;9.60;;;3.20;;
65009;SDS011;51556;50.002;22.014;2023-10-09T01:27:01;7.00;;;3.00;;
65009;SDS011;51556;50.002;22.014;2023-10-09T01:29:24;5.30;;;2.00;;
65009;SDS011;51556;50.002;22.014;2023-10-09T01:31:53;3.70;;;1.80;;
65009;SDS011;51556;50.002;22.014;2023-10-09T01:34:23;6.80;;;1.90;;
65009;SDS011;51556;50.002;22.014;2023-10-09T01:36:57;6.20;;;2.10;;
65009;SDS011;51556;50.002;22.014;2023-10-09T01:39:25;4.50;;;2.00;;
65009;SDS011;51556;50.002;22.014;2023-10-09T01:42:05;6.70;;;2.70;;
65009;SDS011;51556;50.002;22.014;2023-10-09T01:44:31;7.30;;;2.30;;
65009;SDS011;51556;50.002;22.014;2023-10-09T01:47:04;6.70;;;3.10;;
65009;SDS011;51556;50.002;22.014;2023-10-09T01:49:33;6.00;;;2.80;;
65009;SDS011;51556;50.002;22.014;2023-10-09T01:52:07;8.40;;;3.50;;
65009;SDS011;51556;50.002;22.014;2023-10-09T01:54:35;9.80;;;3.50;;
65009;SDS011;51556;50.002;22.014;2023-10-09T01:57:08;5.10;;;2.30;;
65009;SDS011;51556;50.002;22.014;2023-10-09T01:59:41;4.00;;;1.60;;
65009;SDS011;51556;50.002;22.014;2023-10-09T02:02:14;4.20;;;1.70;;
65009;SDS011;51556;50.002;22.014;2023-10-09T02:04:55;3.50;;;1.40;;
65009;SDS011;51556;50.002;22.014;2023-10-09T02:07:39;4.00;;;2.00;;
65009;SDS011;51556;50.002;22.014;2023-10-09T02:10:17;4.10;;;2.20;;
65009;SDS011;51556;50.002;22.014;2023-10-09T02:12:51;5.40;;;1.90;;
65009;SDS011;51556;50.002;22.014;2023-10-09T02:15:26;4.20;;;1.70;;
65009;SDS011;51556;50.002;22.014;2023-10-09T02:18:07;3.60;;;1.70;;
65009;SDS011;51556;50.002;22.014;2023-10-09T02:23:32;4.70;;;2.00;;
65009;SDS011;51556;50.002;22.014;2023-10-09T02:26:25;5.90;;;2.10;;
65009;SDS011;51556;50.002;22.014;2023-10-09T02:28:52;5.40;;;2.10;;
65009;SDS011;51556;50.002;22.014;2023-10-09T02:31:24;5.50;;;2.10;;
65009;SDS011;51556;50.002;22.014;2023-10-09T02:33:52;4.60;;;2.00;;
65009;SDS011;51556;50.002;22.014;2023-10-09T02:36:21;5.00;;;2.40;;
65009;SDS011;51556;50.002;22.014;2023-10-09T02:38:47;5.30;;;2.30;;
65009;SDS011;51556;50.002;22.014;2023-10-09T02:41:16;5.80;;;1.90;;
65009;SDS011;51556;50.002;22.014;2023-10-09T02:43:42;5.90;;;1.90;;
65009;SDS011;51556;50.002;22.014;2023-10-09T02:46:19;5.40;;;1.90;;
65009;SDS011;51556;50.002;22.014;2023-10-09T02:48:54;4.30;;;2.10;;
65009;SDS011;51556;50.002;22.014;2023-10-09T02:51:24;4.30;;;2.00;;
65009;SDS011;51556;50.002;22.014;2023-10-09T02:53:52;4.60;;;2.30;;
65009;SDS011;51556;50.002;22.014;2023-10-09T02:56:17;4.50;;;2.20;;
65009;SDS011;51556;50.002;22.014;2023-10-09T02:58:50;5.60;;;2.90;;
65009;SDS011;51556;50.002;22.014;2023-10-09T03:01:16;4.20;;;2.10;;
65009;SDS011;51556;50.002;22.014;2023-10-09T03:03:41;7.80;;;2.90;;
65009;SDS011;51556;50.002;22.014;2023-10-09T03:06:14;6.50;;;2.90;;
65009;SDS011;51556;50.002;22.014;2023-10-09T03:08:44;4.30;;;2.40;;
65009;SDS011;51556;50.002;22.014;2023-10-09T03:11:13;6.70;;;2.70;;
65009;SDS011;51556;50.002;22.014;2023-10-09T03:13:42;6.00;;;2.60;;
65009;SDS011;51556;50.002;22.014;2023-10-09T03:18:40;8.00;;;2.30;;
65009;SDS011;51556;50.002;22.014;2023-10-09T03:21:05;6.00;;;2.50;;
65009;SDS011;51556;50.002;22.014;2023-10-09T03:23:31;7.30;;;2.40;;
65009;SDS011;51556;50.002;22.014;2023-10-09T03:25:57;5.70;;;2.40;;
65009;SDS011;51556;50.002;22.014;2023-10-09T03:28:24;4.40;;;2.30;;
65009;SDS011;51556;50.002;22.014;2023-10-09T03:30:49;6.60;;;2.60;;
65009;SDS011;51556;50.002;22.014;2023-10-09T03:33:16;6.40;;;2.60;;
65009;SDS011;51556;50.002;22.014;2023-10-09T03:35:42;5.00;;;2.20;;
65009;SDS011;51556;50.002;22.014;2023-10-09T03:38:08;4.20;;;2.20;;
65009;SDS011;51556;50.002;22.014;2023-10-09T03:40:43;7.30;;;2.70;;
65009;SDS011;51556;50.002;22.014;2023-10-09T03:43:13;4.60;;;2.10;;
65009;SDS011;51556;50.002;22.014;2023-10-09T03:45:40;5.20;;;2.30;;
65009;SDS011;51556;50.002;22.014;2023-10-09T03:48:17;6.30;;;2.20;;
65009;SDS011;51556;50.002;22.014;2023-10-09T03:50:51;5.60;;;3.20;;
65009;SDS011;51556;50.002;22.014;2023-10-09T03:53:33;5.90;;;2.40;;
65009;SDS011;51556;50.002;22.014;2023-10-09T03:56:01;5.00;;;2.60;;
65009;SDS011;51556;50.002;22.014;2023-10-09T03:58:39;5.70;;;2.70;;
65009;SDS011;51556;50.002;22.014;2023-10-09T04:01:14;6.80;;;2.70;;
65009;SDS011;51556;50.002;22.014;2023-10-09T04:03:48;6.90;;;2.80;;
65009;SDS011;51556;50.002;22.014;2023-10-09T04:06:15;8.30;;;2.80;;
65009;SDS011;51556;50.002;22.014;2023-10-09T04:08:43;6.60;;;2.50;;
65009;SDS011;51556;50.002;22.014;2023-10-09T04:11:14;7.70;;;2.50;;
65009;SDS011;51556;50.002;22.014;2023-10-09T04:13:47;7.80;;;2.70;;
65009;SDS011;51556;50.002;22.014;2023-10-09T04:16:14;6.20;;;2.60;;
65009;SDS011;51556;50.002;22.014;2023-10-09T04:18:56;4.10;;;2.00;;
65009;SDS011;51556;50.002;22.014;2023-10-09T04:21:25;7.40;;;2.50;;
65009;SDS011;51556;50.002;22.014;2023-10-09T04:24:02;4.50;;;2.10;;
65009;SDS011;51556;50.002;22.014;2023-10-09T04:26:49;4.40;;;2.10;;
65009;SDS011;51556;50.002;22.014;2023-10-09T04:29:22;5.10;;;2.00;;
65009;SDS011;51556;50.002;22.014;2023-10-09T04:32:12;4.80;;;2.10;;
65009;SDS011;51556;50.002;22.014;2023-10-09T04:34:50;6.70;;;2.30;;
65009;SDS011;51556;50.002;22.014;2023-10-09T04:37:36;7.80;;;2.10;;
65009;SDS011;51556;50.002;22.014;2023-10-09T04:40:03;6.50;;;2.60;;
65009;SDS011;51556;50.002;22.014;2023-10-09T04:42:58;4.70;;;1.90;;
65009;SDS011;51556;50.002;22.014;2023-10-09T04:45:24;3.70;;;2.10;;
65009;SDS011;51556;50.002;22.014;2023-10-09T04:48:08;5.90;;;2.30;;
65009;SDS011;51556;50.002;22.014;2023-10-09T04:50:35;5.90;;;2.30;;
65009;SDS011;51556;50.002;22.014;2023-10-09T04:53:04;6.20;;;2.40;;
65009;SDS011;51556;50.002;22.014;2023-10-09T04:55:47;6.50;;;2.00;;
65009;SDS011;51556;50.002;22.014;2023-10-09T04:58:22;9.70;;;2.50;;
65009;SDS011;51556;50.002;22.014;2023-10-09T05:00:50;4.00;;;2.20;;
65009;SDS011;51556;50.002;22.014;2023-10-09T05:03:25;5.80;;;2.70;;
65009;SDS011;51556;50.002;22.014;2023-10-09T05:05:55;4.10;;;2.40;;
65009;SDS011;51556;50.002;22.014;2023-10-09T05:08:24;5.50;;;2.50;;
65009;SDS011;51556;50.002;22.014;2023-10-09T05:10:56;5.80;;;2.60;;
65009;SDS011;51556;50.002;22.014;2023-10-09T05:13:22;8.90;;;2.90;;
65009;SDS011;51556;50.002;22.014;2023-10-09T05:16:16;11.10;;;2.70;;
65009;SDS011;51556;50.002;22.014;2023-10-09T05:18:56;6.50;;;3.00;;
65009;SDS011;51556;50.002;22.014;2023-10-09T05:24:04;4.70;;;2.60;;
65009;SDS011;51556;50.002;22.014;2023-10-09T05:32:01;9.40;;;3.70;;
65009;SDS011;51556;50.002;22.014;2023-10-09T05:34:37;6.20;;;2.90;;
65009;SDS011;51556;50.002;22.014;2023-10-09T05:37:23;6.90;;;3.50;;
65009;SDS011;51556;50.002;22.014;2023-10-09T05:39:59;9.40;;;3.80;;
65009;SDS011;51556;50.002;22.014;2023-10-09T05:42:32;8.30;;;2.80;;
65009;SDS011;51556;50.002;22.014;2023-10-09T05:45:05;6.70;;;2.60;;
65009;SDS011;51556;50.002;22.014;2023-10-09T05:47:50;7.30;;;2.60;;
65009;SDS011;51556;50.002;22.014;2023-10-09T05:50:21;7.10;;;3.20;;
65009;SDS011;51556;50.002;22.014;2023-10-09T05:52:57;5.00;;;2.20;;
65009;SDS011;51556;50.002;22.014;2023-10-09T05:55:41;6.70;;;3.20;;
65009;SDS011;51556;50.002;22.014;2023-10-09T05:58:25;6.80;;;3.20;;
65009;SDS011;51556;50.002;22.014;2023-10-09T06:01:09;8.50;;;4.20;;
65009;SDS011;51556;50.002;22.014;2023-10-09T06:03:53;9.20;;;3.40;;
65009;SDS011;51556;50.002;22.014;2023-10-09T06:06:19;11.90;;;3.40;;
65009;SDS011;51556;50.002;22.014;2023-10-09T06:09:04;6.60;;;3.10;;
65009;SDS011;51556;50.002;22.014;2023-10-09T06:14:11;6.20;;;2.60;;
65009;SDS011;51556;50.002;22.014;2023-10-09T06:16:41;7.90;;;3.30;;
65009;SDS011;51556;50.002;22.014;2023-10-09T06:19:11;8.60;;;3.40;;
65009;SDS011;51556;50.002;22.014;2023-10-09T06:21:51;8.60;;;3.70;;
65009;SDS011;51556;50.002;22.014;2023-10-09T06:24:40;7.50;;;3.50;;
65009;SDS011;51556;50.002;22.014;2023-10-09T06:27:09;16.40;;;4.20;;
65009;SDS011;51556;50.002;22.014;2023-10-09T06:29:35;9.00;;;3.60;;
65009;SDS011;51556;50.002;22.014;2023-10-09T06:32:15;9.30;;;3.40;;
65009;SDS011;51556;50.002;22.014;2023-10-09T06:34:51;8.70;;;3.80;;
65009;SDS011;51556;50.002;22.014;2023-10-09T06:37:43;7.60;;;3.20;;
65009;SDS011;51556;50.002;22.014;2023-10-09T06:43:08;10.30;;;3.30;;
65009;SDS011;51556;50.002;22.014;2023-10-09T06:45:45;4.80;;;2.30;;
65009;SDS011;51556;50.002;22.014;2023-10-09T06:48:14;5.20;;;2.50;;
65009;SDS011;51556;50.002;22.014;2023-10-09T06:51:02;5.30;;;1.90;;
65009;SDS011;51556;50.002;22.014;2023-10-09T06:56:18;6.60;;;2.70;;
65009;SDS011;51556;50.002;22.014;2023-10-09T06:59:00;6.10;;;2.30;;
65009;SDS011;51556;50.002;22.014;2023-10-09T07:01:30;7.60;;;2.20;;
65009;SDS011;51556;50.002;22.014;2023-10-09T07:04:11;6.80;;;2.50;;
65009;SDS011;51556;50.002;22.014;2023-10-09T07:07:12;7.80;;;2.60;;
65009;SDS011;51556;50.002;22.014;2023-10-09T07:09:40;7.10;;;2.20;;
65009;SDS011;51556;50.002;22.014;2023-10-09T07:12:08;8.20;;;3.00;;
65009;SDS011;51556;50.002;22.014;2023-10-09T07:14:51;6.40;;;2.70;;
65009;SDS011;51556;50.002;22.014;2023-10-09T07:17:32;7.90;;;2.30;;
65009;SDS011;51556;50.002;22.014;2023-10-09T07:20:00;6.10;;;2.60;;
65009;SDS011;51556;50.002;22.014;2023-10-09T07:22:38;7.30;;;2.70;;
65009;SDS011;51556;50.002;22.014;2023-10-09T07:25:18;5.80;;;2.40;;
65009;SDS011;51556;50.002;22.014;2023-10-09T07:28:06;6.50;;;2.80;;
65009;SDS011;51556;50.002;22.014;2023-10-09T07:30:54;5.60;;;2.70;;
65009;SDS011;51556;50.002;22.014;2023-10-09T07:33:23;6.00;;;2.80;;
65009;SDS011;51556;50.002;22.014;2023-10-09T07:35:55;5.50;;;2.20;;
65009;SDS011;51556;50.002;22.014;2023-10-09T07:38:24;7.20;;;2.60;;
65009;SDS011;51556;50.002;22.014;2023-10-09T07:41:02;5.60;;;2.50;;
65009;SDS011;51556;50.002;22.014;2023-10-09T07:43:35;5.40;;;2.40;;
65009;SDS011;51556;50.002;22.014;2023-10-09T07:46:05;8.00;;;2.90;;
65009;SDS011;51556;50.002;22.014;2023-10-09T07:48:49;8.20;;;3.70;;
65009;SDS011;51556;50.002;22.014;2023-10-09T07:51:18;5.80;;;2.90;;
65009;SDS011;51556;50.002;22.014;2023-10-09T07:53:51;9.00;;;3.10;;
65009;SDS011;51556;50.002;22.014;2023-10-09T07:56:35;7.50;;;3.20;;
65009;SDS011;51556;50.002;22.014;2023-10-09T07:59:10;6.80;;;2.70;;
65009;SDS011;51556;50.002;22.014;2023-10-09T08:01:40;7.10;;;2.90;;
65009;SDS011;51556;50.002;22.014;2023-10-09T08:04:18;7.80;;;2.60;;
65009;SDS011;51556;50.002;22.014;2023-10-09T08:07:02;6.70;;;3.00;;
65009;SDS011;51556;50.002;22.014;2023-10-09T08:09:31;5.40;;;2.80;;
65009;SDS011;51556;50.002;22.014;2023-10-09T08:12:15;6.60;;;2.40;;
65009;SDS011;51556;50.002;22.014;2023-10-09T08:15:06;6.30;;;3.30;;
65009;SDS011;51556;50.002;22.014;2023-10-09T08:17:47;6.50;;;2.90;;
65009;SDS011;51556;50.002;22.014;2023-10-09T08:20:24;6.40;;;2.70;;
65009;SDS011;51556;50.002;22.014;2023-10-09T08:22:52;6.80;;;3.20;;
65009;SDS011;51556;50.002;22.014;2023-10-09T08:25:23;7.50;;;3.40;;
65009;SDS011;51556;50.002;22.014;2023-10-09T08:27:57;7.60;;;3.30;;
65009;SDS011;51556;50.002;22.014;2023-10-09T08:30:44;11.40;;;4.80;;
65009;SDS011;51556;50.002;22.014;2023-10-09T08:33:18;16.80;;;9.40;;
65009;SDS011;51556;50.002;22.014;2023-10-09T08:35:55;13.70;;;6.90;;
65009;SDS011;51556;50.002;22.014;2023-10-09T08:38:28;10.30;;;6.10;;
65009;SDS011;51556;50.002;22.014;2023-10-09T08:41:05;10.90;;;5.40;;
65009;SDS011;51556;50.002;22.014;2023-10-09T08:43:41;7.00;;;3.20;;
65009;SDS011;51556;50.002;22.014;2023-10-09T08:48:52;6.80;;;2.90;;
65009;SDS011;51556;50.002;22.014;2023-10-09T08:51:20;7.30;;;3.80;;
65009;SDS011;51556;50.002;22.014;2023-10-09T08:53:47;6.70;;;3.10;;
65009;SDS011;51556;50.002;22.014;2023-10-09T08:56:13;6.30;;;3.10;;
65009;SDS011;51556;50.002;22.014;2023-10-09T08:58:47;7.30;;;3.40;;
65009;SDS011;51556;50.002;22.014;2023-10-09T09:01:17;9.10;;;4.40;;
65009;SDS011;51556;50.002;22.014;2023-10-09T09:03:47;8.60;;;4.20;;
65009;SDS011;51556;50.002;22.014;2023-10-09T09:06:13;7.30;;;3.50;;
65009;SDS011;51556;50.002;22.014;2023-10-09T09:08:39;7.90;;;2.60;;
65009;SDS011;51556;50.002;22.014;2023-10-09T09:11:09;5.00;;;1.90;;
65009;SDS011;51556;50.002;22.014;2023-10-09T09:16:22;8.30;;;2.20;;
65009;SDS011;51556;50.002;22.014;2023-10-09T09:18:55;6.00;;;2.10;;
65009;SDS011;51556;50.002;22.014;2023-10-09T09:21:30;6.30;;;2.50;;
65009;SDS011;51556;50.002;22.014;2023-10-09T09:24:12;3.60;;;1.90;;
65009;SDS011;51556;50.002;22.014;2023-10-09T09:26:41;3.80;;;1.90;;
65009;SDS011;51556;50.002;22.014;2023-10-09T09:29:11;3.10;;;1.70;;
65009;SDS011;51556;50.002;22.014;2023-10-09T09:31:52;5.70;;;2.30;;
65009;SDS011;51556;50.002;22.014;2023-10-09T09:34:37;6.20;;;1.70;;
65009;SDS011;51556;50.002;22.014;2023-10-09T09:37:20;2.90;;;1.80;;
65009;SDS011;51556;50.002;22.014;2023-10-09T09:39:49;4.50;;;1.70;;
65009;SDS011;51556;50.002;22.014;2023-10-09T09:42:17;3.20;;;1.60;;
65009;SDS011;51556;50.002;22.014;2023-10-09T09:44:50;5.40;;;1.60;;
65009;SDS011;51556;50.002;22.014;2023-10-09T09:47:16;6.00;;;2.00;;
65009;SDS011;51556;50.002;22.014;2023-10-09T09:49:52;6.30;;;1.60;;
65009;SDS011;51556;50.002;22.014;2023-10-09T09:52:25;4.60;;;1.60;;
65009;SDS011;51556;50.002;22.014;2023-10-09T09:54:54;4.20;;;1.50;;
65009;SDS011;51556;50.002;22.014;2023-10-09T09:57:20;3.30;;;1.50;;
65009;SDS011;51556;50.002;22.014;2023-10-09T09:59:51;3.70;;;1.30;;
65009;SDS011;51556;50.002;22.014;2023-10-09T10:02:20;3.50;;;1.60;;
65009;SDS011;51556;50.002;22.014;2023-10-09T10:05:05;5.20;;;1.20;;
65009;SDS011;51556;50.002;22.014;2023-10-09T10:07:36;3.20;;;1.60;;
65009;SDS011;51556;50.002;22.014;2023-10-09T10:10:54;4.30;;;1.90;;
65009;SDS011;51556;50.002;22.014;2023-10-09T10:12:59;2.60;;;1.20;;
65009;SDS011;51556;50.002;22.014;2023-10-09T10:18:31;3.90;;;1.70;;
65009;SDS011;51556;50.002;22.014;2023-10-09T10:23:39;4.10;;;1.90;;
65009;SDS011;51556;50.002;22.014;2023-10-09T10:26:27;3.50;;;1.60;;
65009;SDS011;51556;50.002;22.014;2023-10-09T10:31:52;3.80;;;1.40;;
65009;SDS011;51556;50.002;22.014;2023-10-09T10:37:11;5.70;;;1.70;;
65009;SDS011;51556;50.002;22.014;2023-10-09T10:39:59;3.70;;;2.00;;
65009;SDS011;51556;50.002;22.014;2023-10-09T10:42:46;3.70;;;1.30;;
65009;SDS011;51556;50.002;22.014;2023-10-09T10:45:22;4.10;;;1.50;;
65009;SDS011;51556;50.002;22.014;2023-10-09T10:47:59;3.60;;;1.70;;
65009;SDS011;51556;50.002;22.014;2023-10-09T10:50:31;2.60;;;1.40;;
65009;SDS011;51556;50.002;22.014;2023-10-09T10:56:00;3.40;;;1.40;;
65009;SDS011;51556;50.002;22.014;2023-10-09T10:58:39;2.90;;;1.80;;
65009;SDS011;51556;50.002;22.014;2023-10-09T11:01:30;4.40;;;1.70;;
65009;SDS011;51556;50.002;22.014;2023-10-09T11:04:25;7.20;;;4.00;;
65009;SDS011;51556;50.002;22.014;2023-10-09T11:06:55;5.00;;;2.00;;
65009;SDS011;51556;50.002;22.014;2023-10-09T11:12:04;4.70;;;2.20;;
65009;SDS011;51556;50.002;22.014;2023-10-09T11:14:47;5.20;;;3.40;;
65009;SDS011;51556;50.002;22.014;2023-10-09T11:17:31;4.60;;;2.30;;
65009;SDS011;51556;50.002;22.014;2023-10-09T11:19:58;3.70;;;1.80;;
65009;SDS011;51556;50.002;22.014;2023-10-09T11:22:44;4.30;;;1.70;;
65009;SDS011;51556;50.002;22.014;2023-10-09T11:25:30;6.80;;;3.50;;
65009;SDS011;51556;50.002;22.014;2023-10-09T11:27:56;6.70;;;3.10;;
65009;SDS011;51556;50.002;22.014;2023-10-09T11:30:30;7.80;;;3.00;;
65009;SDS011;51556;50.002;22.014;2023-10-09T11:33:04;4.70;;;2.20;;
65009;SDS011;51556;50.002;22.014;2023-10-09T11:35:30;3.30;;;1.80;;
65009;SDS011;51556;50.002;22.014;2023-10-09T11:37:59;4.80;;;1.40;;
65009;SDS011;51556;50.002;22.014;2023-10-09T11:40:29;8.40;;;4.00;;
65009;SDS011;51556;50.002;22.014;2023-10-09T11:43:19;2.70;;;1.30;;
65009;SDS011;51556;50.002;22.014;2023-10-09T11:46:10;4.00;;;1.20;;
65009;SDS011;51556;50.002;22.014;2023-10-09T11:48:36;4.70;;;1.70;;
65009;SDS011;51556;50.002;22.014;2023-10-09T11:51:14;4.60;;;1.50;;
65009;SDS011;51556;50.002;22.014;2023-10-09T11:53:40;5.30;;;1.90;;
65009;SDS011;51556;50.002;22.014;2023-10-09T11:56:08;3.10;;;1.40;;
65009;SDS011;51556;50.002;22.014;2023-10-09T11:58:39;4.80;;;1.70;;
65009;SDS011;51556;50.002;22.014;2023-10-09T12:01:12;3.90;;;1.50;;
65009;SDS011;51556;50.002;22.014;2023-10-09T12:03:51;3.40;;;1.00;;
65009;SDS011;51556;50.002;22.014;2023-10-09T12:06:17;2.90;;;1.20;;
65009;SDS011;51556;50.002;22.014;2023-10-09T12:08:47;4.90;;;1.20;;
65009;SDS011;51556;50.002;22.014;2023-10-09T12:11:14;3.00;;;0.90;;
65009;SDS011;51556;50.002;22.014;2023-10-09T12:13:47;2.90;;;1.20;;
65009;SDS011;51556;50.002;22.014;2023-10-09T12:16:21;2.40;;;0.90;;
65009;SDS011;51556;50.002;22.014;2023-10-09T12:18:53;2.20;;;0.90;;
65009;SDS011;51556;50.002;22.014;2023-10-09T12:21:20;3.40;;;1.40;;
65009;SDS011;51556;50.002;22.014;2023-10-09T12:23:45;3.30;;;1.20;;
65009;SDS011;51556;50.002;22.014;2023-10-09T12:26:12;2.80;;;1.00;;
65009;SDS011;51556;50.002;22.014;2023-10-09T12:28:39;2.30;;;1.20;;
65009;SDS011;51556;50.002;22.014;2023-10-09T12:31:05;2.20;;;1.20;;
65009;SDS011;51556;50.002;22.014;2023-10-09T12:33:31;2.70;;;1.00;;
65009;SDS011;51556;50.002;22.014;2023-10-09T12:35:57;1.70;;;0.80;;
65009;SDS011;51556;50.002;22.014;2023-10-09T12:38:26;3.20;;;1.30;;
65009;SDS011;51556;50.002;22.014;2023-10-09T12:41:03;2.40;;;1.10;;
65009;SDS011;51556;50.002;22.014;2023-10-09T12:43:44;9.40;;;1.30;;
65009;SDS011;51556;50.002;22.014;2023-10-09T12:46:11;4.50;;;1.30;;
65009;SDS011;51556;50.002;22.014;2023-10-09T12:48:42;2.30;;;0.90;;
65009;SDS011;51556;50.002;22.014;2023-10-09T12:51:14;3.70;;;1.10;;
65009;SDS011;51556;50.002;22.014;2023-10-09T12:53:44;2.60;;;0.90;;
65009;SDS011;51556;50.002;22.014;2023-10-09T12:56:13;2.80;;;1.00;;
65009;SDS011;51556;50.002;22.014;2023-10-09T12:58:40;1.90;;;0.90;;
65009;SDS011;51556;50.002;22.014;2023-10-09T13:01:17;2.40;;;1.10;;
65009;SDS011;51556;50.002;22.014;2023-10-09T13:03:45;2.10;;;1.10;;
65009;SDS011;51556;50.002;22.014;2023-10-09T13:06:14;4.00;;;1.10;;
65009;SDS011;51556;50.002;22.014;2023-10-09T13:08:41;1.70;;;0.60;;
65009;SDS011;51556;50.002;22.014;2023-10-09T13:11:10;1.70;;;0.70;;
65009;SDS011;51556;50.002;22.014;2023-10-09T13:13:40;1.30;;;0.90;;
65009;SDS011;51556;50.002;22.014;2023-10-09T13:16:08;1.70;;;0.90;;
65009;SDS011;51556;50.002;22.014;2023-10-09T13:18:38;1.30;;;0.80;;
65009;SDS011;51556;50.002;22.014;2023-10-09T13:21:14;1.30;;;0.60;;
65009;SDS011;51556;50.002;22.014;2023-10-09T13:23:40;1.50;;;0.80;;
65009;SDS011;51556;50.002;22.014;2023-10-09T13:26:18;2.00;;;1.00;;
65009;SDS011;51556;50.002;22.014;2023-10-09T13:28:52;1.20;;;0.70;;
65009;SDS011;51556;50.002;22.014;2023-10-09T13:31:19;1.40;;;0.70;;
65009;SDS011;51556;50.002;22.014;2023-10-09T13:33:46;1.40;;;0.80;;
65009;SDS011;51556;50.002;22.014;2023-10-09T13:36:13;1.50;;;1.00;;
65009;SDS011;51556;50.002;22.014;2023-10-09T13:44:26;1.80;;;0.90;;
65009;SDS011;51556;50.002;22.014;2023-10-09T13:46:56;4.20;;;0.90;;
65009;SDS011;51556;50.002;22.014;2023-10-09T13:49:22;2.00;;;0.80;;
65009;SDS011;51556;50.002;22.014;2023-10-09T13:51:51;2.50;;;0.90;;
65009;SDS011;51556;50.002;22.014;2023-10-09T13:54:21;2.90;;;1.20;;
65009;SDS011;51556;50.002;22.014;2023-10-09T13:57:00;1.70;;;1.10;;
65009;SDS011;51556;50.002;22.014;2023-10-09T13:59:29;1.40;;;0.80;;
65009;SDS011;51556;50.002;22.014;2023-10-09T14:01:55;2.20;;;0.90;;
65009;SDS011;51556;50.002;22.014;2023-10-09T14:04:21;2.20;;;0.90;;
65009;SDS011;51556;50.002;22.014;2023-10-09T14:06:51;2.10;;;1.20;;
65009;SDS011;51556;50.002;22.014;2023-10-09T14:09:25;1.70;;;0.70;;
65009;SDS011;51556;50.002;22.014;2023-10-09T14:12:03;4.10;;;1.20;;
65009;SDS011;51556;50.002;22.014;2023-10-09T14:14:45;2.90;;;1.20;;
65009;SDS011;51556;50.002;22.014;2023-10-09T14:17:17;4.00;;;1.30;;
65009;SDS011;51556;50.002;22.014;2023-10-09T14:19:53;8.70;;;3.10;;
65009;SDS011;51556;50.002;22.014;2023-10-09T14:22:22;4.90;;;1.50;;
65009;SDS011;51556;50.002;22.014;2023-10-09T14:24:52;6.70;;;2.00;;
65009;SDS011;51556;50.002;22.014;2023-10-09T14:27:24;5.20;;;1.80;;
65009;SDS011;51556;50.002;22.014;2023-10-09T14:29:52;5.30;;;1.50;;
65009;SDS011;51556;50.002;22.014;2023-10-09T14:32:24;6.40;;;2.30;;
65009;SDS011;51556;50.002;22.014;2023-10-09T14:35:09;6.80;;;2.30;;
65009;SDS011;51556;50.002;22.014;2023-10-09T14:37:38;2.80;;;1.60;;
65009;SDS011;51556;50.002;22.014;2023-10-09T14:40:05;4.00;;;1.60;;
65009;SDS011;51556;50.002;22.014;2023-10-09T14:42:40;4.90;;;1.80;;
65009;SDS011;51556;50.002;22.014;2023-10-09T14:45:09;3.60;;;1.40;;
65009;SDS011;51556;50.002;22.014;2023-10-09T14:47:40;5.00;;;1.90;;
65009;SDS011;51556;50.002;22.014;2023-10-09T14:50:06;2.90;;;1.50;;
65009;SDS011;51556;50.002;22.014;2023-10-09T14:52:34;3.50;;;1.70;;
65009;SDS011;51556;50.002;22.014;2023-10-09T14:55:03;5.40;;;2.00;;
65009;SDS011;51556;50.002;22.014;2023-10-09T14:57:29;4.80;;;2.30;;
65009;SDS011;51556;50.002;22.014;2023-10-09T14:59:59;3.10;;;1.50;;
65009;SDS011;51556;50.002;22.014;2023-10-09T15:02:32;4.40;;;2.00;;
65009;SDS011;51556;50.002;22.014;2023-10-09T15:04:58;6.10;;;3.00;;
65009;SDS011;51556;50.002;22.014;2023-10-09T15:07:24;4.50;;;2.30;;
65009;SDS011;51556;50.002;22.014;2023-10-09T15:09:49;5.70;;;2.30;;
65009;SDS011;51556;50.002;22.014;2023-10-09T15:12:16;4.80;;;2.70;;
65009;SDS011;51556;50.002;22.014;2023-10-09T15:14:41;4.80;;;2.70;;
65009;SDS011;51556;50.002;22.014;2023-10-09T15:17:08;3.40;;;1.80;;
65009;SDS011;51556;50.002;22.014;2023-10-09T15:19:34;4.50;;;2.10;;
65009;SDS011;51556;50.002;22.014;2023-10-09T15:21:59;3.20;;;1.90;;
65009;SDS011;51556;50.002;22.014;2023-10-09T15:24:25;5.40;;;1.80;;
65009;SDS011;51556;50.002;22.014;2023-10-09T15:26:52;3.20;;;1.60;;
65009;SDS011;51556;50.002;22.014;2023-10-09T15:29:22;4.50;;;2.00;;
65009;SDS011;51556;50.002;22.014;2023-10-09T15:31:55;6.30;;;2.50;;
65009;SDS011;51556;50.002;22.014;2023-10-09T15:34:39;8.40;;;3.60;;
65009;SDS011;51556;50.002;22.014;2023-10-09T15:37:06;5.30;;;3.30;;
65009;SDS011;51556;50.002;22.014;2023-10-09T15:39:33;7.30;;;4.20;;
65009;SDS011;51556;50.002;22.014;2023-10-09T15:42:00;6.80;;;3.50;;
65009;SDS011;51556;50.002;22.014;2023-10-09T15:44:29;5.10;;;2.90;;
65009;SDS011;51556;50.002;22.014;2023-10-09T15:46:59;4.60;;;2.80;;
65009;SDS011;51556;50.002;22.014;2023-10-09T15:49:28;5.90;;;3.30;;
65009;SDS011;51556;50.002;22.014;2023-10-09T15:51:55;6.70;;;3.10;;
65009;SDS011;51556;50.002;22.014;2023-10-09T15:54:23;6.70;;;3.70;;
65009;SDS011;51556;50.002;22.014;2023-10-09T15:56:49;4.70;;;3.30;;
65009;SDS011;51556;50.002;22.014;2023-10-09T15:59:16;10.60;;;4.80;;
65009;SDS011;51556;50.002;22.014;2023-10-09T16:01:42;7.50;;;4.50;;
65009;SDS011;51556;50.002;22.014;2023-10-09T16:04:10;10.10;;;4.80;;